Climatologie pour Saint-Brevin les Pins
Jour • Résumé pour juin 23, 2017 Système :  Métrique    Anglais   Mixte
« - 1 jour
+ 1 jour »
Jour Semaine Mois Année Personnalisé
  Maximum : Minimum : Moyenne :
Température sous abri : 22.7 °C 15.4 °C 18.6 °C
Point de rosée : 16.5 °C 13.3 °C 14.6 °C
Humidité : 94 % 62 % 78 %
Vitesse du vent : 17.7 km/h 0.0 km/h 5.8 km/h
Rafale : 27.4 km/h - -
Direction :- - West
Pression : 1022.9 hPa 1017.8 hPa -
Précipitations : 0.0 mm    
Historical Graphs
 
 
Tableau de données pour juin 23, 2017
Heure Tempé Pt rosée Pression Vent Vitesse Rafale Humidité Taux pluie (/hr) Soleil
00:00 17.2 °C 16.0 °C 1017.8 hPa West 1.6 km/h 6.4 km/h 93 % 0.0 mm 0 W/m2
00:10 17.1 °C 16.1 °C 1017.8 hPa WNW 1.6 km/h 9.7 km/h 94 % 0.0 mm 0 W/m2
00:20 17.0 °C 16.0 °C 1018.2 hPa WNW 4.8 km/h 4.8 km/h 94 % 0.0 mm 0 W/m2
00:30 17.0 °C 16.0 °C 1018.2 hPa North 4.8 km/h 11.3 km/h 94 % 0.0 mm 0 W/m2
00:35 17.1 °C 16.1 °C 1018.2 hPa North 1.6 km/h 11.3 km/h 94 % 0.0 mm 0 W/m2
00:40 17.1 °C 16.1 °C 1018.5 hPa North 6.4 km/h 9.7 km/h 94 % 0.0 mm 0 W/m2
00:45 17.1 °C 15.9 °C 1018.2 hPa North 3.2 km/h 9.7 km/h 93 % 0.0 mm 0 W/m2
00:50 17.0 °C 15.9 °C 1018.5 hPa North 1.6 km/h 9.7 km/h 93 % 0.0 mm 0 W/m2
00:55 17.0 °C 15.7 °C 1018.5 hPa NNE 4.8 km/h 9.7 km/h 92 % 0.0 mm 0 W/m2
01:00 17.0 °C 15.5 °C 1018.5 hPa North 4.8 km/h 9.7 km/h 91 % 0.0 mm 0 W/m2
01:05 16.8 °C 15.4 °C 1018.5 hPa Calm   8.0 km/h 91 % 0.0 mm 0 W/m2
01:10 16.7 °C 15.2 °C 1018.5 hPa North 1.6 km/h 9.7 km/h 91 % 0.0 mm 0 W/m2
01:15 16.7 °C 15.2 °C 1018.5 hPa NNW 1.6 km/h 9.7 km/h 91 % 0.0 mm 0 W/m2
01:20 16.6 °C 15.0 °C 1018.8 hPa North 3.2 km/h 9.7 km/h 90 % 0.0 mm 0 W/m2
01:25 16.4 °C 15.0 °C 1018.8 hPa North 3.2 km/h 11.3 km/h 91 % 0.0 mm 0 W/m2
01:30 16.5 °C 15.0 °C 1018.8 hPa North 6.4 km/h 11.3 km/h 91 % 0.0 mm 0 W/m2
01:35 16.7 °C 15.0 °C 1018.8 hPa NNW 3.2 km/h 11.3 km/h 90 % 0.0 mm 0 W/m2
01:40 16.9 °C 15.3 °C 1019.2 hPa North 4.8 km/h 11.3 km/h 90 % 0.0 mm 0 W/m2
01:50 17.2 °C 15.2 °C 1019.2 hPa North 1.6 km/h 11.3 km/h 88 % 0.0 mm 0 W/m2
01:55 17.4 °C 15.3 °C 1019.2 hPa NW 3.2 km/h 9.7 km/h 87 % 0.0 mm 0 W/m2
02:00 17.4 °C 15.3 °C 1019.2 hPa North 1.6 km/h 9.7 km/h 87 % 0.0 mm 0 W/m2
02:05 17.6 °C 15.2 °C 1019.2 hPa Calm   9.7 km/h 86 % 0.0 mm 0 W/m2
02:10 17.6 °C 15.2 °C 1019.2 hPa North 6.4 km/h 8.0 km/h 86 % 0.0 mm 0 W/m2
02:15 17.6 °C 15.2 °C 1019.2 hPa North 11.3 km/h 12.9 km/h 86 % 0.0 mm 0 W/m2
02:20 17.7 °C 15.1 °C 1019.2 hPa North 4.8 km/h 12.9 km/h 85 % 0.0 mm 0 W/m2
02:25 17.8 °C 14.9 °C 1019.2 hPa North 1.6 km/h 11.3 km/h 83 % 0.0 mm 0 W/m2
02:30 17.8 °C 14.9 °C 1019.2 hPa NNE 6.4 km/h 11.3 km/h 83 % 0.0 mm 0 W/m2
02:35 17.9 °C 15.0 °C 1019.2 hPa North 3.2 km/h 11.3 km/h 83 % 0.0 mm 0 W/m2
02:40 17.9 °C 15.0 °C 1019.2 hPa NNW 1.6 km/h 11.3 km/h 83 % 0.0 mm 0 W/m2
02:45 17.9 °C 15.0 °C 1019.2 hPa NNE 3.2 km/h 8.0 km/h 83 % 0.0 mm 0 W/m2
02:50 17.8 °C 14.9 °C 1019.2 hPa North 4.8 km/h 11.3 km/h 83 % 0.0 mm 0 W/m2
02:55 17.9 °C 14.8 °C 1019.2 hPa North 3.2 km/h 11.3 km/h 82 % 0.0 mm 0 W/m2
03:00 17.9 °C 14.8 °C 1019.2 hPa Calm   11.3 km/h 82 % 0.0 mm 0 W/m2
03:05 17.9 °C 14.8 °C 1019.2 hPa Calm   11.3 km/h 82 % 0.0 mm 0 W/m2
03:10 17.8 °C 14.7 °C 1019.2 hPa North 8.0 km/h 9.7 km/h 82 % 0.0 mm 0 W/m2
03:15 17.8 °C 14.7 °C 1019.2 hPa NNE 6.4 km/h 8.0 km/h 82 % 0.0 mm 0 W/m2
03:20 17.7 °C 14.6 °C 1019.2 hPa NNE 3.2 km/h 11.3 km/h 82 % 0.0 mm 0 W/m2
03:25 17.7 °C 14.6 °C 1019.2 hPa NNE 3.2 km/h 11.3 km/h 82 % 0.0 mm 0 W/m2
03:30 17.7 °C 14.6 °C 1019.2 hPa Calm   9.7 km/h 82 % 0.0 mm 0 W/m2
03:35 17.6 °C 14.5 °C 1019.2 hPa NNW 1.6 km/h 8.0 km/h 82 % 0.0 mm 0 W/m2
03:40 17.4 °C 14.5 °C 1019.2 hPa NNE 6.4 km/h 8.0 km/h 83 % 0.0 mm 0 W/m2
03:45 17.3 °C 14.4 °C 1019.2 hPa Calm   8.0 km/h 83 % 0.0 mm 0 W/m2
03:50 17.1 °C 14.4 °C 1019.2 hPa Calm   8.0 km/h 84 % 0.0 mm 0 W/m2
03:55 16.8 °C 14.3 °C 1019.2 hPa Calm   3.2 km/h 85 % 0.0 mm 0 W/m2
04:00 16.5 °C 14.1 °C 1019.2 hPa Calm   3.2 km/h 86 % 0.0 mm 0 W/m2
04:05 16.2 °C 14.0 °C 1019.2 hPa NE 1.6 km/h 3.2 km/h 87 % 0.0 mm 0 W/m2
04:10 16.0 °C 14.0 °C 1019.2 hPa Calm   3.2 km/h 88 % 0.0 mm 0 W/m2
04:15 15.8 °C 13.8 °C 1019.2 hPa Calm   1.6 km/h 88 % 0.0 mm 0 W/m2
04:20 15.7 °C 13.9 °C 1019.2 hPa Calm   3.2 km/h 89 % 0.0 mm 0 W/m2
04:25 15.6 °C 13.7 °C 1019.2 hPa Calm   3.2 km/h 89 % 0.0 mm 0 W/m2
04:30 15.4 °C 13.8 °C 1019.2 hPa Calm     90 % 0.0 mm 0 W/m2
04:35 15.5 °C 13.9 °C 1019.2 hPa Calm     90 % 0.0 mm 0 W/m2
04:40 15.6 °C 14.1 °C 1019.2 hPa Calm   1.6 km/h 91 % 0.0 mm 0 W/m2
04:45 15.7 °C 14.2 °C 1019.2 hPa Calm   3.2 km/h 91 % 0.0 mm 0 W/m2
04:50 16.1 °C 14.4 °C 1019.5 hPa Calm   4.8 km/h 90 % 0.0 mm 0 W/m2
04:55 16.3 °C 14.5 °C 1019.5 hPa Calm   6.4 km/h 89 % 0.0 mm 0 W/m2
05:00 16.3 °C 14.3 °C 1019.5 hPa NNE 3.2 km/h 8.0 km/h 88 % 0.0 mm 0 W/m2
05:05 16.6 °C 14.6 °C 1019.5 hPa NNE 1.6 km/h 8.0 km/h 88 % 0.0 mm 0 W/m2
05:10 16.6 °C 14.4 °C 1019.5 hPa Calm   4.8 km/h 87 % 0.0 mm 0 W/m2
05:15 16.6 °C 14.4 °C 1019.5 hPa Calm   4.8 km/h 87 % 0.0 mm 0 W/m2
05:20 16.8 °C 14.6 °C 1019.5 hPa Calm   4.8 km/h 87 % 0.0 mm 0 W/m2
05:25 16.8 °C 14.6 °C 1019.5 hPa Calm   4.8 km/h 87 % 0.0 mm 0 W/m2
05:30 16.7 °C 14.5 °C 1019.9 hPa Calm   4.8 km/h 87 % 0.0 mm 0 W/m2
05:35 16.9 °C 14.7 °C 1019.9 hPa NW 1.6 km/h 11.3 km/h 87 % 0.0 mm 0 W/m2
05:40 16.9 °C 14.7 °C 1019.9 hPa North 6.4 km/h 11.3 km/h 87 % 0.0 mm 0 W/m2
05:45 16.9 °C 14.4 °C 1019.9 hPa NNW 3.2 km/h 11.3 km/h 85 % 0.0 mm 0 W/m2
05:50 17.0 °C 14.3 °C 1019.9 hPa North 8.0 km/h 12.9 km/h 84 % 0.0 mm 0 W/m2
05:55 17.0 °C 13.9 °C 1019.9 hPa NNW 6.4 km/h 16.1 km/h 82 % 0.0 mm 0 W/m2
06:05 17.0 °C 13.5 °C 1020.2 hPa NNW 3.2 km/h 11.3 km/h 80 % 0.0 mm 0 W/m2
06:10 17.0 °C 13.5 °C 1020.2 hPa WNW 3.2 km/h 11.3 km/h 80 % 0.0 mm 0 W/m2
06:15 16.9 °C 13.7 °C 1020.2 hPa Calm   9.7 km/h 81 % 0.0 mm 0 W/m2
06:20 16.9 °C 13.5 °C 1020.2 hPa NNW 4.8 km/h 12.9 km/h 80 % 0.0 mm 0 W/m2
06:35 16.8 °C 13.5 °C 1020.2 hPa North 1.6 km/h 12.9 km/h 81 % 0.0 mm 18 W/m2
06:40 16.6 °C 13.3 °C 1020.5 hPa NNW 3.2 km/h 12.9 km/h 81 % 0.0 mm 26 W/m2
06:45 16.5 °C 13.4 °C 1020.5 hPa NNW 1.6 km/h 12.9 km/h 82 % 0.0 mm 35 W/m2
06:50 16.3 °C 13.3 °C 1020.5 hPa NNW 1.6 km/h 11.3 km/h 82 % 0.0 mm 46 W/m2
06:55 16.4 °C 13.5 °C 1020.5 hPa NW 1.6 km/h 9.7 km/h 83 % 0.0 mm 58 W/m2
07:00 16.5 °C 13.6 °C 1020.5 hPa NNE 8.0 km/h 11.3 km/h 83 % 0.0 mm 65 W/m2
07:05 16.7 °C 13.6 °C 1020.5 hPa NNW 6.4 km/h 12.9 km/h 82 % 0.0 mm 67 W/m2
07:10 16.8 °C 13.9 °C 1020.9 hPa NW 1.6 km/h 12.9 km/h 83 % 0.0 mm 69 W/m2
07:15 16.9 °C 13.8 °C 1020.9 hPa Calm   11.3 km/h 82 % 0.0 mm 69 W/m2
07:20 16.9 °C 14.0 °C 1020.9 hPa Calm   8.0 km/h 83 % 0.0 mm 74 W/m2
07:25 17.0 °C 14.1 °C 1020.9 hPa Calm   8.0 km/h 83 % 0.0 mm 72 W/m2
07:30 16.9 °C 13.8 °C 1020.9 hPa WNW 3.2 km/h 9.7 km/h 82 % 0.0 mm 63 W/m2
07:35 16.7 °C 13.8 °C 1020.9 hPa NNW 8.0 km/h 9.7 km/h 83 % 0.0 mm 70 W/m2
07:40 16.6 °C 13.7 °C 1020.9 hPa Calm   8.0 km/h 83 % 0.0 mm 69 W/m2
07:45 16.4 °C 13.7 °C 1020.9 hPa NNW 3.2 km/h 8.0 km/h 84 % 0.0 mm 65 W/m2
07:55 16.6 °C 13.7 °C 1021.2 hPa NW 3.2 km/h 9.7 km/h 83 % 0.0 mm 237 W/m2
08:00 17.0 °C 13.9 °C 1021.2 hPa North 8.0 km/h 12.9 km/h 82 % 0.0 mm 216 W/m2
08:05 17.2 °C 13.9 °C 1021.2 hPa NNW 8.0 km/h 12.9 km/h 81 % 0.0 mm 234 W/m2
08:10 17.4 °C 14.0 °C 1021.2 hPa North 3.2 km/h 12.9 km/h 80 % 0.0 mm 334 W/m2
08:15 17.9 °C 14.2 °C 1021.2 hPa North 6.4 km/h 11.3 km/h 79 % 0.0 mm 343 W/m2
08:20 17.9 °C 13.7 °C 1021.2 hPa NNE 3.2 km/h 11.3 km/h 76 % 0.0 mm 102 W/m2
08:25 17.7 °C 14.0 °C 1021.2 hPa Calm   9.7 km/h 79 % 0.0 mm 116 W/m2
08:30 17.4 °C 14.0 °C 1021.2 hPa North 6.4 km/h 8.0 km/h 80 % 0.0 mm 200 W/m2
08:35 17.2 °C 13.9 °C 1021.6 hPa NNW 6.4 km/h 8.0 km/h 81 % 0.0 mm 62 W/m2
08:40 16.9 °C 13.8 °C 1021.6 hPa NNW 3.2 km/h 8.0 km/h 82 % 0.0 mm 76 W/m2
08:45 16.8 °C 13.7 °C 1021.6 hPa Calm   6.4 km/h 82 % 0.0 mm 306 W/m2
08:50 17.7 °C 14.4 °C 1021.6 hPa Calm   4.8 km/h 81 % 0.0 mm 432 W/m2
08:55 18.5 °C 14.4 °C 1021.6 hPa WNW 3.2 km/h 4.8 km/h 77 % 0.0 mm 485 W/m2
09:00 18.9 °C 14.6 °C 1021.6 hPa WNW 1.6 km/h 6.4 km/h 76 % 0.0 mm 480 W/m2
09:05 18.8 °C 14.1 °C 1021.6 hPa North 3.2 km/h 8.0 km/h 74 % 0.0 mm 299 W/m2
09:10 18.7 °C 13.9 °C 1021.6 hPa West 1.6 km/h 8.0 km/h 74 % 0.0 mm 156 W/m2
09:15 18.3 °C 14.0 °C 1021.6 hPa West 3.2 km/h 6.4 km/h 76 % 0.0 mm 214 W/m2
09:20 18.3 °C 14.0 °C 1021.6 hPa Calm   6.4 km/h 76 % 0.0 mm 264 W/m2
09:25 18.3 °C 13.6 °C 1021.6 hPa WNW 3.2 km/h 4.8 km/h 74 % 0.0 mm 135 W/m2
09:30 18.1 °C 13.4 °C 1021.9 hPa Calm   4.8 km/h 74 % 0.0 mm 128 W/m2
09:35 18.1 °C 13.6 °C 1021.9 hPa WNW 1.6 km/h 4.8 km/h 75 % 0.0 mm 587 W/m2
09:40 18.6 °C 14.1 °C 1021.6 hPa Calm   4.8 km/h 75 % 0.0 mm 431 W/m2
09:50 19.0 °C 13.4 °C 1021.6 hPa Calm   8.0 km/h 70 % 0.0 mm 250 W/m2
09:55 18.9 °C 13.8 °C 1021.9 hPa Calm   8.0 km/h 72 % 0.0 mm 174 W/m2
10:00 18.8 °C 13.6 °C 1021.9 hPa Calm   8.0 km/h 72 % 0.0 mm 128 W/m2
10:05 18.6 °C 13.4 °C 1021.9 hPa WSW 1.6 km/h 8.0 km/h 72 % 0.0 mm 174 W/m2
10:15 18.8 °C 13.7 °C 1021.9 hPa West 1.6 km/h 8.0 km/h 72 % 0.0 mm 202 W/m2
10:20 18.7 °C 13.7 °C 1021.9 hPa WSW 9.7 km/h 9.7 km/h 73 % 0.0 mm 188 W/m2
10:25 18.6 °C 14.1 °C 1021.9 hPa West 4.8 km/h 11.3 km/h 75 % 0.0 mm 160 W/m2
10:30 18.5 °C 14.0 °C 1021.9 hPa WSW 3.2 km/h 11.3 km/h 75 % 0.0 mm 214 W/m2
10:35 18.6 °C 14.0 °C 1021.9 hPa SW 1.6 km/h 9.7 km/h 75 % 0.0 mm 225 W/m2
10:40 18.8 °C 14.3 °C 1021.9 hPa NW 4.8 km/h 8.0 km/h 75 % 0.0 mm 297 W/m2
10:45 19.2 °C 14.2 °C 1021.9 hPa Calm   6.4 km/h 73 % 0.0 mm 301 W/m2
10:50 19.3 °C 14.1 °C 1021.9 hPa Calm   6.4 km/h 72 % 0.0 mm 281 W/m2
10:55 19.1 °C 13.7 °C 1021.9 hPa Calm   4.8 km/h 71 % 0.0 mm 262 W/m2
11:00 19.3 °C 13.9 °C 1021.9 hPa NW 1.6 km/h 4.8 km/h 71 % 0.0 mm 237 W/m2
11:05 19.0 °C 13.6 °C 1022.2 hPa Calm   6.4 km/h 71 % 0.0 mm 202 W/m2
11:10 18.9 °C 14.0 °C 1022.2 hPa WNW 8.0 km/h 11.3 km/h 73 % 0.0 mm 181 W/m2
11:15 18.8 °C 14.1 °C 1022.2 hPa West 9.7 km/h 11.3 km/h 74 % 0.0 mm 149 W/m2
11:20 18.7 °C 14.2 °C 1022.2 hPa West 6.4 km/h 12.9 km/h 75 % 0.0 mm 172 W/m2
11:25 18.7 °C 14.2 °C 1022.2 hPa WSW 8.0 km/h 12.9 km/h 75 % 0.0 mm 181 W/m2
11:30 18.7 °C 14.2 °C 1022.2 hPa WSW 4.8 km/h 11.3 km/h 75 % 0.0 mm 192 W/m2
11:35 18.7 °C 14.0 °C 1022.2 hPa WSW 9.7 km/h 12.9 km/h 74 % 0.0 mm 167 W/m2
11:45 18.7 °C 14.0 °C 1022.6 hPa WSW 1.6 km/h 11.3 km/h 74 % 0.0 mm 199 W/m2
11:50 18.8 °C 14.1 °C 1022.6 hPa WSW 8.0 km/h 11.3 km/h 74 % 0.0 mm 213 W/m2
11:55 18.9 °C 14.2 °C 1022.2 hPa WSW 6.4 km/h 12.9 km/h 74 % 0.0 mm 227 W/m2
12:00 19.0 °C 14.3 °C 1022.2 hPa SW 8.0 km/h 16.1 km/h 74 % 0.0 mm 246 W/m2
12:05 19.0 °C 14.3 °C 1022.2 hPa WSW 8.0 km/h 16.1 km/h 74 % 0.0 mm 325 W/m2
12:10 19.2 °C 14.5 °C 1022.2 hPa WSW 6.4 km/h 16.1 km/h 74 % 0.0 mm 415 W/m2
12:15 19.7 °C 15.0 °C 1022.2 hPa WNW 11.3 km/h 20.9 km/h 74 % 0.0 mm 487 W/m2
12:20 19.7 °C 14.7 °C 1022.6 hPa WSW 9.7 km/h 20.9 km/h 73 % 0.0 mm 355 W/m2
12:25 19.8 °C 15.2 °C 1022.2 hPa West 6.4 km/h 16.1 km/h 75 % 0.0 mm 475 W/m2
12:30 19.7 °C 14.7 °C 1022.2 hPa West 8.0 km/h 17.7 km/h 73 % 0.0 mm 469 W/m2
12:35 19.8 °C 14.9 °C 1022.2 hPa WSW 4.8 km/h 17.7 km/h 73 % 0.0 mm 478 W/m2
12:40 19.7 °C 15.2 °C 1022.6 hPa WNW 4.8 km/h 14.5 km/h 75 % 0.0 mm 434 W/m2
12:45 19.9 °C 15.2 °C 1022.6 hPa WSW 9.7 km/h 14.5 km/h 74 % 0.0 mm 490 W/m2
12:50 20.1 °C 15.3 °C 1022.2 hPa WSW 6.4 km/h 17.7 km/h 74 % 0.0 mm 603 W/m2
12:55 20.4 °C 15.2 °C 1022.2 hPa WSW 8.0 km/h 17.7 km/h 72 % 0.0 mm 577 W/m2
13:00 20.3 °C 15.3 °C 1022.2 hPa West 4.8 km/h 14.5 km/h 73 % 0.0 mm 534 W/m2
13:05 20.3 °C 15.1 °C 1022.2 hPa WNW 6.4 km/h 14.5 km/h 72 % 0.0 mm 585 W/m2
13:10 20.7 °C 15.3 °C 1022.2 hPa SW 9.7 km/h 14.5 km/h 71 % 0.0 mm 554 W/m2
13:15 20.4 °C 15.0 °C 1022.2 hPa West 4.8 km/h 14.5 km/h 71 % 0.0 mm 524 W/m2
13:20 20.4 °C 15.2 °C 1022.2 hPa West 8.0 km/h 16.1 km/h 72 % 0.0 mm 489 W/m2
13:25 20.4 °C 15.4 °C 1022.2 hPa West 12.9 km/h 16.1 km/h 73 % 0.0 mm 603 W/m2
13:30 20.6 °C 15.8 °C 1021.9 hPa West 6.4 km/h 14.5 km/h 74 % 0.0 mm 585 W/m2
13:40 20.7 °C 15.4 °C 1021.9 hPa WSW 9.7 km/h 11.3 km/h 72 % 0.0 mm 573 W/m2
13:45 20.7 °C 15.0 °C 1021.9 hPa West 12.9 km/h 14.5 km/h 70 % 0.0 mm 659 W/m2
13:50 20.8 °C 15.1 °C 1021.9 hPa WNW 6.4 km/h 16.1 km/h 70 % 0.0 mm 673 W/m2
13:55 20.8 °C 15.1 °C 1021.9 hPa WSW 1.6 km/h 16.1 km/h 70 % 0.0 mm 642 W/m2
14:00 20.7 °C 15.3 °C 1022.2 hPa SW 11.3 km/h 16.1 km/h 71 % 0.0 mm 596 W/m2
14:05 20.9 °C 15.4 °C 1022.2 hPa SSW 4.8 km/h 16.1 km/h 71 % 0.0 mm 566 W/m2
14:10 20.6 °C 14.7 °C 1022.2 hPa WSW 9.7 km/h 16.1 km/h 69 % 0.0 mm 482 W/m2
14:15 20.6 °C 14.9 °C 1022.2 hPa West 8.0 km/h 16.1 km/h 70 % 0.0 mm 529 W/m2
14:20 20.5 °C 15.3 °C 1022.2 hPa Calm   19.3 km/h 72 % 0.0 mm 503 W/m2
14:25 20.8 °C 15.5 °C 1022.6 hPa SW 3.2 km/h 19.3 km/h 72 % 0.0 mm 450 W/m2
14:30 20.7 °C 15.4 °C 1022.6 hPa West 11.3 km/h 17.7 km/h 72 % 0.0 mm 520 W/m2
14:35 20.7 °C 15.2 °C 1022.6 hPa West 14.5 km/h 17.7 km/h 71 % 0.0 mm 559 W/m2
14:40 20.7 °C 15.0 °C 1022.2 hPa West 8.0 km/h 19.3 km/h 70 % 0.0 mm 527 W/m2
14:45 20.7 °C 15.3 °C 1022.2 hPa SW 14.5 km/h 19.3 km/h 71 % 0.0 mm 592 W/m2
14:50 20.9 °C 15.5 °C 1022.2 hPa West 8.0 km/h 20.9 km/h 71 % 0.0 mm 601 W/m2
14:55 20.7 °C 15.3 °C 1022.2 hPa WNW 11.3 km/h 20.9 km/h 71 % 0.0 mm 584 W/m2
15:00 20.5 °C 14.8 °C 1022.2 hPa WNW 12.9 km/h 19.3 km/h 70 % 0.0 mm 599 W/m2
15:05 21.3 °C 15.6 °C 1022.2 hPa WSW 6.4 km/h 17.7 km/h 70 % 0.0 mm 612 W/m2
15:10 21.3 °C 15.1 °C 1022.2 hPa WSW 8.0 km/h 19.3 km/h 68 % 0.0 mm 578 W/m2
15:20 21.7 °C 15.1 °C 1022.2 hPa West 14.5 km/h 22.5 km/h 66 % 0.0 mm 606 W/m2
15:25 21.3 °C 15.0 °C 1022.2 hPa West 11.3 km/h 22.5 km/h 67 % 0.0 mm 663 W/m2
15:30 21.9 °C 15.1 °C 1022.2 hPa WNW 1.6 km/h 22.5 km/h 65 % 0.0 mm 809 W/m2
15:35 22.7 °C 15.7 °C 1022.2 hPa West 4.8 km/h 19.3 km/h 65 % 0.0 mm 1044 W/m2
15:40 22.1 °C 14.5 °C 1022.2 hPa WNW 12.9 km/h 17.7 km/h 62 % 0.0 mm 816 W/m2
15:45 22.4 °C 15.2 °C 1022.2 hPa West 4.8 km/h 19.3 km/h 64 % 0.0 mm 939 W/m2
15:50 22.3 °C 15.4 °C 1022.2 hPa WNW 4.8 km/h 20.9 km/h 65 % 0.0 mm 652 W/m2
15:55 22.2 °C 16.0 °C 1022.2 hPa WSW 8.0 km/h 22.5 km/h 68 % 0.0 mm 621 W/m2
16:00 21.3 °C 15.0 °C 1022.2 hPa WNW 4.8 km/h 22.5 km/h 67 % 0.0 mm 315 W/m2
16:05 21.0 °C 14.9 °C 1022.2 hPa NW 14.5 km/h 20.9 km/h 68 % 0.0 mm 425 W/m2
16:10 20.5 °C 15.1 °C 1022.2 hPa West 4.8 km/h 20.9 km/h 71 % 0.0 mm 281 W/m2
16:15 20.2 °C 14.8 °C 1022.2 hPa WNW 9.7 km/h 19.3 km/h 71 % 0.0 mm 316 W/m2
16:20 19.8 °C 14.8 °C 1022.6 hPa West 4.8 km/h 20.9 km/h 73 % 0.0 mm 316 W/m2
16:25 19.9 °C 15.0 °C 1022.2 hPa West 9.7 km/h 20.9 km/h 73 % 0.0 mm 311 W/m2
16:30 20.4 °C 16.0 °C 1022.2 hPa West 8.0 km/h 17.7 km/h 76 % 0.0 mm 916 W/m2
16:35 21.2 °C 15.5 °C 1022.2 hPa WNW 11.3 km/h 19.3 km/h 70 % 0.0 mm 450 W/m2
16:40 20.8 °C 15.4 °C 1021.9 hPa West 11.3 km/h 20.9 km/h 71 % 0.0 mm 726 W/m2
16:45 21.7 °C 16.5 °C 1021.9 hPa WSW 14.5 km/h 20.9 km/h 72 % 0.0 mm 877 W/m2
16:50 22.1 °C 15.5 °C 1022.2 hPa West 12.9 km/h 19.3 km/h 66 % 0.0 mm 689 W/m2
16:55 21.2 °C 15.3 °C 1021.9 hPa WSW 11.3 km/h 19.3 km/h 69 % 0.0 mm 793 W/m2
17:00 21.7 °C 15.3 °C 1021.9 hPa WSW 3.2 km/h 17.7 km/h 67 % 0.0 mm 795 W/m2
17:05 21.9 °C 15.5 °C 1021.9 hPa West 4.8 km/h 19.3 km/h 67 % 0.0 mm 759 W/m2
17:10 21.9 °C 15.5 °C 1021.9 hPa WSW 16.1 km/h 22.5 km/h 67 % 0.0 mm 740 W/m2
17:15 22.2 °C 16.0 °C 1021.9 hPa WSW 12.9 km/h 22.5 km/h 68 % 0.0 mm 717 W/m2
17:20 22.1 °C 15.4 °C 1021.9 hPa WSW 3.2 km/h 19.3 km/h 66 % 0.0 mm 700 W/m2
17:25 22.1 °C 15.0 °C 1021.9 hPa West 11.3 km/h 20.9 km/h 64 % 0.0 mm 712 W/m2
17:30 21.6 °C 15.0 °C 1021.9 hPa West 6.4 km/h 20.9 km/h 66 % 0.0 mm 689 W/m2
17:35 21.4 °C 15.5 °C 1021.9 hPa West 12.9 km/h 20.9 km/h 69 % 0.0 mm 684 W/m2
17:40 21.7 °C 15.3 °C 1021.9 hPa West 12.9 km/h 22.5 km/h 67 % 0.0 mm 650 W/m2
17:45 20.9 °C 15.0 °C 1021.9 hPa WSW 11.3 km/h 22.5 km/h 69 % 0.0 mm 649 W/m2
17:50 20.7 °C 15.0 °C 1021.9 hPa WSW 4.8 km/h 20.9 km/h 70 % 0.0 mm 640 W/m2
17:55 20.8 °C 15.1 °C 1021.9 hPa WSW 8.0 km/h 22.5 km/h 70 % 0.0 mm 601 W/m2
18:00 20.5 °C 14.6 °C 1021.9 hPa West 16.1 km/h 22.5 km/h 69 % 0.0 mm 582 W/m2
18:05 21.1 °C 14.9 °C 1021.9 hPa WSW 4.8 km/h 24.1 km/h 68 % 0.0 mm 566 W/m2
18:10 21.3 °C 15.2 °C 1021.9 hPa West 8.0 km/h 24.1 km/h 68 % 0.0 mm 548 W/m2
18:15 21.1 °C 15.6 °C 1021.9 hPa WSW 17.7 km/h 24.1 km/h 71 % 0.0 mm 541 W/m2
18:20 21.4 °C 15.5 °C 1021.9 hPa West 17.7 km/h 24.1 km/h 69 % 0.0 mm 527 W/m2
18:25 21.1 °C 15.1 °C 1021.9 hPa WSW 9.7 km/h 20.9 km/h 69 % 0.0 mm 513 W/m2
18:30 21.4 °C 15.3 °C 1021.9 hPa SW 4.8 km/h 20.9 km/h 68 % 0.0 mm 499 W/m2
18:35 20.8 °C 14.9 °C 1021.9 hPa SSW 6.4 km/h 24.1 km/h 69 % 0.0 mm 483 W/m2
18:40 21.0 °C 15.5 °C 1021.9 hPa SW 3.2 km/h 24.1 km/h 71 % 0.0 mm 471 W/m2
18:45 20.9 °C 15.3 °C 1021.9 hPa West 9.7 km/h 22.5 km/h 70 % 0.0 mm 452 W/m2
18:55 20.9 °C 15.2 °C 1021.9 hPa West 6.4 km/h 25.7 km/h 70 % 0.0 mm 427 W/m2
19:00 20.4 °C 15.4 °C 1021.9 hPa West 3.2 km/h 25.7 km/h 73 % 0.0 mm 411 W/m2
19:05 20.5 °C 15.5 °C 1021.9 hPa West 9.7 km/h 27.4 km/h 73 % 0.0 mm 397 W/m2
19:10 20.8 °C 15.8 °C 1021.9 hPa WNW 11.3 km/h 27.4 km/h 73 % 0.0 mm 374 W/m2
19:15 20.8 °C 15.3 °C 1021.9 hPa WNW 17.7 km/h 22.5 km/h 71 % 0.0 mm 362 W/m2
19:20 20.1 °C 15.1 °C 1021.9 hPa WNW 4.8 km/h 22.5 km/h 73 % 0.0 mm 348 W/m2
19:25 20.1 °C 15.3 °C 1021.9 hPa West 9.7 km/h 27.4 km/h 74 % 0.0 mm 336 W/m2
19:30 19.9 °C 15.2 °C 1021.9 hPa WSW 16.1 km/h 27.4 km/h 74 % 0.0 mm 325 W/m2
19:35 20.2 °C 15.6 °C 1021.9 hPa WSW 11.3 km/h 25.7 km/h 75 % 0.0 mm 301 W/m2
19:40 20.3 °C 15.5 °C 1021.9 hPa WSW 11.3 km/h 19.3 km/h 74 % 0.0 mm 265 W/m2
19:45 20.2 °C 15.4 °C 1021.9 hPa West 6.4 km/h 19.3 km/h 74 % 0.0 mm 255 W/m2
19:50 20.2 °C 15.4 °C 1021.9 hPa NW 14.5 km/h 17.7 km/h 74 % 0.0 mm 230 W/m2
19:55 20.1 °C 15.3 °C 1021.9 hPa West 8.0 km/h 17.7 km/h 74 % 0.0 mm 218 W/m2
20:00 19.8 °C 14.8 °C 1021.9 hPa NW 12.9 km/h 20.9 km/h 73 % 0.0 mm 211 W/m2
20:10 19.2 °C 14.6 °C 1021.9 hPa WNW 9.7 km/h 24.1 km/h 75 % 0.0 mm 39 W/m2
20:15 18.8 °C 14.5 °C 1022.2 hPa WSW 16.1 km/h 20.9 km/h 76 % 0.0 mm 162 W/m2
20:20 18.8 °C 14.5 °C 1022.2 hPa NW 8.0 km/h 20.9 km/h 76 % 0.0 mm 100 W/m2
20:25 19.1 °C 14.8 °C 1022.2 hPa WNW 16.1 km/h 22.5 km/h 76 % 0.0 mm 181 W/m2
20:30 19.4 °C 14.8 °C 1022.2 hPa WNW 11.3 km/h 24.1 km/h 75 % 0.0 mm 158 W/m2
20:35 19.3 °C 14.7 °C 1022.2 hPa WSW 11.3 km/h 25.7 km/h 75 % 0.0 mm 88 W/m2
20:40 19.1 °C 14.9 °C 1022.2 hPa NW 11.3 km/h 25.7 km/h 77 % 0.0 mm 62 W/m2
20:45 18.8 °C 14.7 °C 1022.2 hPa West 16.1 km/h 22.5 km/h 77 % 0.0 mm 35 W/m2
20:50 18.7 °C 14.6 °C 1022.2 hPa West 8.0 km/h 20.9 km/h 77 % 0.0 mm 35 W/m2
20:55 18.6 °C 14.6 °C 1022.2 hPa WNW 8.0 km/h 20.9 km/h 78 % 0.0 mm 33 W/m2
21:00 18.4 °C 14.5 °C 1022.2 hPa Calm   17.7 km/h 78 % 0.0 mm 28 W/m2
21:05 18.3 °C 14.4 °C 1021.9 hPa West 3.2 km/h 17.7 km/h 78 % 0.0 mm 23 W/m2
21:10 18.2 °C 14.3 °C 1021.9 hPa WNW 12.9 km/h 17.7 km/h 78 % 0.0 mm 23 W/m2
21:15 18.1 °C 14.2 °C 1021.9 hPa West 14.5 km/h 19.3 km/h 78 % 0.0 mm 23 W/m2
21:20 18.0 °C 14.3 °C 1021.9 hPa West 8.0 km/h 19.3 km/h 79 % 0.0 mm 21 W/m2
21:30 17.9 °C 14.2 °C 1021.9 hPa NW 8.0 km/h 17.7 km/h 79 % 0.0 mm 18 W/m2
21:35 17.8 °C 14.3 °C 1021.9 hPa WNW 8.0 km/h 17.7 km/h 80 % 0.0 mm 19 W/m2
21:40 17.8 °C 14.3 °C 1021.9 hPa WNW 6.4 km/h 19.3 km/h 80 % 0.0 mm 16 W/m2
21:45 17.8 °C 14.3 °C 1021.9 hPa WNW 6.4 km/h 19.3 km/h 80 % 0.0 mm 12 W/m2
21:50 17.7 °C 14.2 °C 1021.9 hPa NW 9.7 km/h 17.7 km/h 80 % 0.0 mm 11 W/m2
21:55 17.7 °C 14.2 °C 1021.9 hPa NW 8.0 km/h 17.7 km/h 80 % 0.0 mm 7 W/m2
22:00 17.4 °C 14.1 °C 1021.9 hPa WNW 8.0 km/h 17.7 km/h 81 % 0.0 mm 5 W/m2
22:05 17.3 °C 14.2 °C 1021.9 hPa West 8.0 km/h 17.7 km/h 82 % 0.0 mm 5 W/m2
22:10 17.3 °C 14.2 °C 1021.9 hPa West 6.4 km/h 17.7 km/h 82 % 0.0 mm 0 W/m2
22:15 17.3 °C 14.2 °C 1021.9 hPa NW 3.2 km/h 16.1 km/h 82 % 0.0 mm 0 W/m2
22:20 17.2 °C 14.1 °C 1021.9 hPa NW 6.4 km/h 16.1 km/h 82 % 0.0 mm 0 W/m2
22:25 17.1 °C 14.0 °C 1021.9 hPa WNW 4.8 km/h 14.5 km/h 82 % 0.0 mm 0 W/m2
22:30 17.1 °C 14.0 °C 1022.2 hPa NW 8.0 km/h 16.1 km/h 82 % 0.0 mm 0 W/m2
22:35 17.1 °C 14.0 °C 1021.9 hPa WNW 12.9 km/h 16.1 km/h 82 % 0.0 mm 0 W/m2
22:40 17.0 °C 13.9 °C 1022.2 hPa NW 6.4 km/h 16.1 km/h 82 % 0.0 mm 0 W/m2
22:45 16.8 °C 13.9 °C 1022.2 hPa WNW 3.2 km/h 16.1 km/h 83 % 0.0 mm 0 W/m2
22:50 16.7 °C 13.8 °C 1022.2 hPa Calm   11.3 km/h 83 % 0.0 mm 0 W/m2
22:55 16.5 °C 14.0 °C 1022.6 hPa WNW 14.5 km/h 14.5 km/h 85 % 0.0 mm 0 W/m2
23:00 16.6 °C 13.9 °C 1022.6 hPa WNW 6.4 km/h 14.5 km/h 84 % 0.0 mm 0 W/m2
23:05 16.8 °C 14.1 °C 1022.6 hPa WNW 6.4 km/h 14.5 km/h 84 % 0.0 mm 0 W/m2
23:10 16.6 °C 13.8 °C 1022.6 hPa WNW 4.8 km/h 12.9 km/h 84 % 0.0 mm 0 W/m2
23:15 16.6 °C 14.3 °C 1022.6 hPa WNW 12.9 km/h 14.5 km/h 86 % 0.0 mm 0 W/m2
23:20 16.5 °C 14.1 °C 1022.6 hPa NW 6.4 km/h 14.5 km/h 86 % 0.0 mm 0 W/m2
23:25 16.5 °C 14.3 °C 1022.6 hPa NW 8.0 km/h 12.9 km/h 87 % 0.0 mm 0 W/m2
23:30 16.6 °C 14.4 °C 1022.6 hPa WSW 3.2 km/h 14.5 km/h 87 % 0.0 mm 0 W/m2
23:35 16.5 °C 14.5 °C 1022.6 hPa WNW 3.2 km/h 14.5 km/h 88 % 0.0 mm 0 W/m2
23:40 16.7 °C 14.7 °C 1022.9 hPa NW 12.9 km/h 12.9 km/h 88 % 0.0 mm 0 W/m2
23:45 16.7 °C 14.8 °C 1022.9 hPa West 11.3 km/h 14.5 km/h 89 % 0.0 mm 0 W/m2
23:50 16.9 °C 15.1 °C 1022.9 hPa West 4.8 km/h 16.1 km/h 89 % 0.0 mm 0 W/m2
23:55 17.1 °C 15.1 °C 1022.9 hPa WNW 4.8 km/h 16.1 km/h 88 % 0.0 mm 0 W/m2
Avec l'autorisation de Weather Underground - 1.75 mb